Airfield :
LOGIN :

Register | Disclaimer

   EN    FR    IT 

 










Legend :    VFR   Marginal VFR   IFR   Intensive IFR   Very Intensive IFR
Visi :
Ceiling :
>= 8 km
>= 3000ft
5 to 8 km
1000 to 3000 ft
1500m to 5 km
500 to 1000 ft
800 to 1500m
200 to 500 ft
< 800m
< 200 ft
Symbols :   Thunderstorms  Fog  Heavy snow  Heavy precipitations  Wind > 20 kt
SIGMETs :     Misc.  Thunderstorms  Icing  Turbulence  Mountain Waves  Volcanic Ashes







- Airport Elevation : 202 ft
- IATA code : LGW
- Download approach charts


EGKK - London Gatwick

CURRENT METAR :
  • 281220Z 22012KT 9999 -SHRA BKN024 18/13 Q1010

EXPIRED METARs :
  • 281150Z 22013G23KT 9999 SCT025 SCT032 19/13 Q1010
  • 281120Z 23014KT 180V260 9999 SCT023 19/13 Q1010
  • 281050Z 22012KT 190V250 9999 BKN024 19/14 Q1009
  • 281020Z 22012KT 200V260 9999 SCT021 SCT034 19/14 Q1009
  • 280950Z 23014KT 9999 SCT023 SCT030 18/14 Q1010

TAF TAF EGKK
Valid from the 28 at 06:00 until the 29 at 12:00 UTC


280442Z 2806/2912 24010KT 9999 SCT020
PROB30
TEMPO 2812/2818 24015G25KT 7000 SHRA BKN014
TEMPO 2818/2904 23015G25KT 7000 RA
PROB40
TEMPO 2818/2820 BKN012
BECMG 2820/2823 BKN010
PROB30
TEMPO 2900/2904 4000 +RA BKN005
BECMG 2903/2906 SCT020
No reported NOTAMs for that airfield.



MET'MAP, your aeronautical weather chart ! - Copyright ORBIFLY December 2007 - Disclaimer

ORBIFLY MET'MAP TEAM :

Programming & Development : Alexandra Zaïnal
Concept & Development : Baudouin d'Aumeries
Co-Development & Prog : Marc-Olivier Méhu
Technical & hardware support : Manuel Goepfert

Contact : metmap@orbifly.com




SOURCES & CREDITS :

   NOAA